sensor_id;sensor_type;location;lat;lon;timestamp;P1;durP1;ratioP1;P2;durP2;ratioP2
8913;SDS011;4492;48.736;9.092;2023-08-01T00:00:01;4.30;;;3.10;;
8913;SDS011;4492;48.736;9.092;2023-08-01T00:02:28;4.70;;;3.03;;
8913;SDS011;4492;48.736;9.092;2023-08-01T00:04:54;7.73;;;3.87;;
8913;SDS011;4492;48.736;9.092;2023-08-01T00:07:19;6.87;;;3.33;;
8913;SDS011;4492;48.736;9.092;2023-08-01T00:09:45;4.67;;;3.47;;
8913;SDS011;4492;48.736;9.092;2023-08-01T00:12:10;4.40;;;3.40;;
8913;SDS011;4492;48.736;9.092;2023-08-01T00:14:36;6.67;;;3.73;;
8913;SDS011;4492;48.736;9.092;2023-08-01T00:17:01;4.93;;;3.50;;
8913;SDS011;4492;48.736;9.092;2023-08-01T00:19:27;4.80;;;3.40;;
8913;SDS011;4492;48.736;9.092;2023-08-01T00:21:53;5.13;;;3.67;;
8913;SDS011;4492;48.736;9.092;2023-08-01T00:24:19;5.80;;;3.60;;
8913;SDS011;4492;48.736;9.092;2023-08-01T00:26:44;5.10;;;3.30;;
8913;SDS011;4492;48.736;9.092;2023-08-01T00:29:10;4.67;;;3.70;;
8913;SDS011;4492;48.736;9.092;2023-08-01T00:31:35;6.30;;;3.83;;
8913;SDS011;4492;48.736;9.092;2023-08-01T00:34:01;4.90;;;3.60;;
8913;SDS011;4492;48.736;9.092;2023-08-01T00:36:26;4.50;;;3.43;;
8913;SDS011;4492;48.736;9.092;2023-08-01T00:38:52;7.10;;;3.33;;
8913;SDS011;4492;48.736;9.092;2023-08-01T00:41:17;5.13;;;3.73;;
8913;SDS011;4492;48.736;9.092;2023-08-01T00:43:43;4.17;;;3.10;;
8913;SDS011;4492;48.736;9.092;2023-08-01T00:46:08;5.27;;;3.47;;
8913;SDS011;4492;48.736;9.092;2023-08-01T00:48:34;3.80;;;3.30;;
8913;SDS011;4492;48.736;9.092;2023-08-01T00:51:01;5.30;;;3.43;;
8913;SDS011;4492;48.736;9.092;2023-08-01T00:53:31;5.33;;;3.67;;
8913;SDS011;4492;48.736;9.092;2023-08-01T00:55:57;4.17;;;3.30;;
8913;SDS011;4492;48.736;9.092;2023-08-01T00:58:23;3.53;;;3.23;;
8913;SDS011;4492;48.736;9.092;2023-08-01T01:00:49;3.97;;;3.30;;
8913;SDS011;4492;48.736;9.092;2023-08-01T01:03:15;5.93;;;3.30;;
8913;SDS011;4492;48.736;9.092;2023-08-01T01:05:48;5.07;;;3.77;;
8913;SDS011;4492;48.736;9.092;2023-08-01T01:08:21;5.40;;;3.00;;
8913;SDS011;4492;48.736;9.092;2023-08-01T01:10:47;5.57;;;3.50;;
8913;SDS011;4492;48.736;9.092;2023-08-01T01:13:12;4.57;;;3.50;;
8913;SDS011;4492;48.736;9.092;2023-08-01T01:15:38;5.53;;;3.60;;
8913;SDS011;4492;48.736;9.092;2023-08-01T01:18:03;4.90;;;3.30;;
8913;SDS011;4492;48.736;9.092;2023-08-01T01:20:30;6.13;;;3.50;;
8913;SDS011;4492;48.736;9.092;2023-08-01T01:23:00;5.27;;;3.67;;
8913;SDS011;4492;48.736;9.092;2023-08-01T01:25:28;4.77;;;3.23;;
8913;SDS011;4492;48.736;9.092;2023-08-01T01:27:54;4.37;;;3.37;;
8913;SDS011;4492;48.736;9.092;2023-08-01T01:30:21;6.43;;;3.90;;
8913;SDS011;4492;48.736;9.092;2023-08-01T01:32:48;4.03;;;3.63;;
8913;SDS011;4492;48.736;9.092;2023-08-01T01:35:14;4.67;;;3.50;;
8913;SDS011;4492;48.736;9.092;2023-08-01T01:37:39;5.03;;;3.60;;
8913;SDS011;4492;48.736;9.092;2023-08-01T01:40:05;5.27;;;3.50;;
8913;SDS011;4492;48.736;9.092;2023-08-01T01:42:31;5.07;;;4.07;;
8913;SDS011;4492;48.736;9.092;2023-08-01T01:44:57;5.67;;;3.90;;
8913;SDS011;4492;48.736;9.092;2023-08-01T01:47:22;5.30;;;3.83;;
8913;SDS011;4492;48.736;9.092;2023-08-01T01:49:48;6.00;;;3.60;;
8913;SDS011;4492;48.736;9.092;2023-08-01T01:52:13;4.03;;;3.60;;
8913;SDS011;4492;48.736;9.092;2023-08-01T01:54:39;8.50;;;3.97;;
8913;SDS011;4492;48.736;9.092;2023-08-01T01:57:04;5.63;;;3.70;;
8913;SDS011;4492;48.736;9.092;2023-08-01T01:59:30;5.50;;;4.00;;
8913;SDS011;4492;48.736;9.092;2023-08-01T02:01:55;6.97;;;3.93;;
8913;SDS011;4492;48.736;9.092;2023-08-01T02:04:21;4.90;;;3.50;;
8913;SDS011;4492;48.736;9.092;2023-08-01T02:06:46;6.40;;;4.40;;
8913;SDS011;4492;48.736;9.092;2023-08-01T02:09:12;5.03;;;3.67;;
8913;SDS011;4492;48.736;9.092;2023-08-01T02:11:38;5.90;;;4.40;;
8913;SDS011;4492;48.736;9.092;2023-08-01T02:14:04;7.07;;;3.90;;
8913;SDS011;4492;48.736;9.092;2023-08-01T02:16:30;5.80;;;4.00;;
8913;SDS011;4492;48.736;9.092;2023-08-01T02:18:55;9.70;;;4.00;;
8913;SDS011;4492;48.736;9.092;2023-08-01T02:21:21;4.77;;;3.50;;
8913;SDS011;4492;48.736;9.092;2023-08-01T02:23:46;6.33;;;3.90;;
8913;SDS011;4492;48.736;9.092;2023-08-01T02:26:12;4.73;;;3.77;;
8913;SDS011;4492;48.736;9.092;2023-08-01T02:28:38;5.23;;;3.37;;
8913;SDS011;4492;48.736;9.092;2023-08-01T02:31:03;8.17;;;3.70;;
8913;SDS011;4492;48.736;9.092;2023-08-01T02:33:29;5.37;;;4.00;;
8913;SDS011;4492;48.736;9.092;2023-08-01T02:35:54;5.63;;;3.50;;
8913;SDS011;4492;48.736;9.092;2023-08-01T02:38:20;5.67;;;3.80;;
8913;SDS011;4492;48.736;9.092;2023-08-01T02:40:45;4.73;;;3.77;;
8913;SDS011;4492;48.736;9.092;2023-08-01T02:43:11;5.97;;;3.90;;
8913;SDS011;4492;48.736;9.092;2023-08-01T02:45:36;4.17;;;3.60;;
8913;SDS011;4492;48.736;9.092;2023-08-01T02:48:02;5.00;;;3.80;;
8913;SDS011;4492;48.736;9.092;2023-08-01T02:50:27;6.40;;;3.80;;
8913;SDS011;4492;48.736;9.092;2023-08-01T02:52:53;8.10;;;4.20;;
8913;SDS011;4492;48.736;9.092;2023-08-01T02:55:18;7.07;;;4.10;;
8913;SDS011;4492;48.736;9.092;2023-08-01T02:57:44;7.70;;;4.10;;
8913;SDS011;4492;48.736;9.092;2023-08-01T03:00:09;7.33;;;3.70;;
8913;SDS011;4492;48.736;9.092;2023-08-01T03:02:36;6.33;;;3.70;;
8913;SDS011;4492;48.736;9.092;2023-08-01T03:05:04;7.33;;;3.80;;
8913;SDS011;4492;48.736;9.092;2023-08-01T03:07:32;5.87;;;4.00;;
8913;SDS011;4492;48.736;9.092;2023-08-01T03:09:58;6.03;;;3.70;;
8913;SDS011;4492;48.736;9.092;2023-08-01T03:12:23;4.03;;;3.37;;
8913;SDS011;4492;48.736;9.092;2023-08-01T03:14:49;5.30;;;3.93;;
8913;SDS011;4492;48.736;9.092;2023-08-01T03:17:14;5.77;;;3.60;;
8913;SDS011;4492;48.736;9.092;2023-08-01T03:19:40;8.27;;;3.53;;
8913;SDS011;4492;48.736;9.092;2023-08-01T03:22:06;4.73;;;3.67;;
8913;SDS011;4492;48.736;9.092;2023-08-01T03:24:32;6.77;;;3.90;;
8913;SDS011;4492;48.736;9.092;2023-08-01T03:26:58;5.20;;;3.70;;
8913;SDS011;4492;48.736;9.092;2023-08-01T03:29:23;4.83;;;3.73;;
8913;SDS011;4492;48.736;9.092;2023-08-01T03:31:49;5.00;;;3.73;;
8913;SDS011;4492;48.736;9.092;2023-08-01T03:34:14;4.43;;;3.47;;
8913;SDS011;4492;48.736;9.092;2023-08-01T03:36:40;4.77;;;3.67;;
8913;SDS011;4492;48.736;9.092;2023-08-01T03:39:05;5.47;;;3.37;;
8913;SDS011;4492;48.736;9.092;2023-08-01T03:41:31;4.33;;;3.47;;
8913;SDS011;4492;48.736;9.092;2023-08-01T03:43:57;7.03;;;3.50;;
8913;SDS011;4492;48.736;9.092;2023-08-01T03:46:23;7.30;;;3.80;;
8913;SDS011;4492;48.736;9.092;2023-08-01T03:48:48;5.37;;;3.33;;
8913;SDS011;4492;48.736;9.092;2023-08-01T03:51:14;5.37;;;3.80;;
8913;SDS011;4492;48.736;9.092;2023-08-01T03:53:40;4.60;;;3.33;;
8913;SDS011;4492;48.736;9.092;2023-08-01T03:56:07;6.57;;;3.63;;
8913;SDS011;4492;48.736;9.092;2023-08-01T03:58:32;5.67;;;3.27;;
8913;SDS011;4492;48.736;9.092;2023-08-01T04:00:58;4.63;;;3.27;;
8913;SDS011;4492;48.736;9.092;2023-08-01T04:03:23;5.47;;;3.60;;
8913;SDS011;4492;48.736;9.092;2023-08-01T04:05:49;4.40;;;3.50;;
8913;SDS011;4492;48.736;9.092;2023-08-01T04:08:14;6.00;;;3.63;;
8913;SDS011;4492;48.736;9.092;2023-08-01T04:10:40;3.53;;;3.10;;
8913;SDS011;4492;48.736;9.092;2023-08-01T04:13:05;5.97;;;3.40;;
8913;SDS011;4492;48.736;9.092;2023-08-01T04:15:31;4.57;;;3.27;;
8913;SDS011;4492;48.736;9.092;2023-08-01T04:17:56;5.13;;;3.33;;
8913;SDS011;4492;48.736;9.092;2023-08-01T04:20:22;4.70;;;3.27;;
8913;SDS011;4492;48.736;9.092;2023-08-01T04:22:47;4.83;;;3.00;;
8913;SDS011;4492;48.736;9.092;2023-08-01T04:25:13;8.87;;;3.50;;
8913;SDS011;4492;48.736;9.092;2023-08-01T04:27:39;5.77;;;3.53;;
8913;SDS011;4492;48.736;9.092;2023-08-01T04:30:04;3.53;;;3.10;;
8913;SDS011;4492;48.736;9.092;2023-08-01T04:32:30;6.67;;;3.60;;
8913;SDS011;4492;48.736;9.092;2023-08-01T04:34:56;4.67;;;3.13;;
8913;SDS011;4492;48.736;9.092;2023-08-01T04:37:21;6.60;;;3.50;;
8913;SDS011;4492;48.736;9.092;2023-08-01T04:39:48;6.33;;;3.60;;
8913;SDS011;4492;48.736;9.092;2023-08-01T04:42:13;4.10;;;3.53;;
8913;SDS011;4492;48.736;9.092;2023-08-01T04:44:39;5.40;;;3.10;;
8913;SDS011;4492;48.736;9.092;2023-08-01T04:47:05;7.07;;;3.00;;
8913;SDS011;4492;48.736;9.092;2023-08-01T04:49:30;4.93;;;2.90;;
8913;SDS011;4492;48.736;9.092;2023-08-01T04:51:56;5.97;;;3.10;;
8913;SDS011;4492;48.736;9.092;2023-08-01T04:54:21;5.57;;;2.70;;
8913;SDS011;4492;48.736;9.092;2023-08-01T04:56:47;4.10;;;3.10;;
8913;SDS011;4492;48.736;9.092;2023-08-01T04:59:12;6.03;;;3.07;;
8913;SDS011;4492;48.736;9.092;2023-08-01T05:01:38;5.13;;;3.00;;
8913;SDS011;4492;48.736;9.092;2023-08-01T05:04:03;4.40;;;3.30;;
8913;SDS011;4492;48.736;9.092;2023-08-01T05:06:29;5.13;;;3.20;;
8913;SDS011;4492;48.736;9.092;2023-08-01T05:08:54;5.37;;;3.40;;
8913;SDS011;4492;48.736;9.092;2023-08-01T05:11:20;4.30;;;3.50;;
8913;SDS011;4492;48.736;9.092;2023-08-01T05:13:46;5.90;;;3.23;;
8913;SDS011;4492;48.736;9.092;2023-08-01T05:16:11;4.10;;;3.27;;
8913;SDS011;4492;48.736;9.092;2023-08-01T05:18:37;5.23;;;3.47;;
8913;SDS011;4492;48.736;9.092;2023-08-01T05:21:02;4.13;;;3.13;;
8913;SDS011;4492;48.736;9.092;2023-08-01T05:23:28;4.77;;;3.37;;
8913;SDS011;4492;48.736;9.092;2023-08-01T05:25:53;5.63;;;3.93;;
8913;SDS011;4492;48.736;9.092;2023-08-01T05:28:19;4.87;;;3.83;;
8913;SDS011;4492;48.736;9.092;2023-08-01T05:30:45;8.43;;;3.53;;
8913;SDS011;4492;48.736;9.092;2023-08-01T05:33:10;7.83;;;3.63;;
8913;SDS011;4492;48.736;9.092;2023-08-01T05:35:36;6.10;;;3.90;;
8913;SDS011;4492;48.736;9.092;2023-08-01T05:38:01;5.73;;;3.20;;
8913;SDS011;4492;48.736;9.092;2023-08-01T05:40:27;5.73;;;3.93;;
8913;SDS011;4492;48.736;9.092;2023-08-01T05:42:52;4.33;;;3.60;;
8913;SDS011;4492;48.736;9.092;2023-08-01T05:45:18;5.03;;;3.87;;
8913;SDS011;4492;48.736;9.092;2023-08-01T05:47:43;5.20;;;4.00;;
8913;SDS011;4492;48.736;9.092;2023-08-01T05:50:09;6.47;;;3.80;;
8913;SDS011;4492;48.736;9.092;2023-08-01T05:52:35;6.97;;;3.83;;
8913;SDS011;4492;48.736;9.092;2023-08-01T05:55:00;7.77;;;3.63;;
8913;SDS011;4492;48.736;9.092;2023-08-01T05:57:26;4.47;;;3.70;;
8913;SDS011;4492;48.736;9.092;2023-08-01T05:59:51;7.03;;;3.90;;
8913;SDS011;4492;48.736;9.092;2023-08-01T06:02:18;4.03;;;3.63;;
8913;SDS011;4492;48.736;9.092;2023-08-01T06:04:43;4.57;;;3.57;;
8913;SDS011;4492;48.736;9.092;2023-08-01T06:07:09;8.67;;;4.00;;
8913;SDS011;4492;48.736;9.092;2023-08-01T06:09:34;6.80;;;3.53;;
8913;SDS011;4492;48.736;9.092;2023-08-01T06:12:00;4.73;;;3.10;;
8913;SDS011;4492;48.736;9.092;2023-08-01T06:14:26;3.77;;;3.30;;
8913;SDS011;4492;48.736;9.092;2023-08-01T06:16:51;3.83;;;3.43;;
8913;SDS011;4492;48.736;9.092;2023-08-01T06:19:17;4.50;;;3.23;;
8913;SDS011;4492;48.736;9.092;2023-08-01T06:21:42;4.17;;;3.57;;
8913;SDS011;4492;48.736;9.092;2023-08-01T06:24:08;4.53;;;3.57;;
8913;SDS011;4492;48.736;9.092;2023-08-01T06:26:33;7.90;;;4.20;;
8913;SDS011;4492;48.736;9.092;2023-08-01T06:28:59;4.90;;;3.60;;
8913;SDS011;4492;48.736;9.092;2023-08-01T06:31:24;3.97;;;3.57;;
8913;SDS011;4492;48.736;9.092;2023-08-01T06:33:50;5.47;;;3.90;;
8913;SDS011;4492;48.736;9.092;2023-08-01T06:36:16;5.80;;;4.10;;
8913;SDS011;4492;48.736;9.092;2023-08-01T06:38:42;7.17;;;4.37;;
8913;SDS011;4492;48.736;9.092;2023-08-01T06:41:08;6.80;;;4.60;;
8913;SDS011;4492;48.736;9.092;2023-08-01T06:43:34;6.77;;;4.67;;
8913;SDS011;4492;48.736;9.092;2023-08-01T06:46:02;6.47;;;4.63;;
8913;SDS011;4492;48.736;9.092;2023-08-01T06:48:28;7.90;;;4.90;;
8913;SDS011;4492;48.736;9.092;2023-08-01T06:50:54;8.20;;;5.07;;
8913;SDS011;4492;48.736;9.092;2023-08-01T06:53:19;9.77;;;5.30;;
8913;SDS011;4492;48.736;9.092;2023-08-01T06:55:45;6.57;;;5.27;;
8913;SDS011;4492;48.736;9.092;2023-08-01T06:58:10;7.43;;;5.27;;
8913;SDS011;4492;48.736;9.092;2023-08-01T07:00:36;8.93;;;5.60;;
8913;SDS011;4492;48.736;9.092;2023-08-01T07:03:01;9.97;;;5.43;;
8913;SDS011;4492;48.736;9.092;2023-08-01T07:05:27;9.50;;;5.90;;
8913;SDS011;4492;48.736;9.092;2023-08-01T07:07:52;10.40;;;6.10;;
8913;SDS011;4492;48.736;9.092;2023-08-01T07:10:18;10.27;;;5.67;;
8913;SDS011;4492;48.736;9.092;2023-08-01T07:12:43;9.50;;;5.37;;
8913;SDS011;4492;48.736;9.092;2023-08-01T07:15:09;7.33;;;5.10;;
8913;SDS011;4492;48.736;9.092;2023-08-01T07:17:35;8.60;;;6.30;;
8913;SDS011;4492;48.736;9.092;2023-08-01T07:20:00;7.20;;;5.07;;
8913;SDS011;4492;48.736;9.092;2023-08-01T07:22:26;9.27;;;5.80;;
8913;SDS011;4492;48.736;9.092;2023-08-01T07:24:52;11.90;;;5.77;;
8913;SDS011;4492;48.736;9.092;2023-08-01T07:27:19;7.37;;;5.23;;
8913;SDS011;4492;48.736;9.092;2023-08-01T07:29:44;7.30;;;5.10;;
8913;SDS011;4492;48.736;9.092;2023-08-01T07:32:10;8.30;;;5.40;;
8913;SDS011;4492;48.736;9.092;2023-08-01T07:34:35;9.17;;;5.20;;
8913;SDS011;4492;48.736;9.092;2023-08-01T07:37:01;6.90;;;4.87;;
8913;SDS011;4492;48.736;9.092;2023-08-01T07:39:26;6.93;;;5.27;;
8913;SDS011;4492;48.736;9.092;2023-08-01T07:41:52;7.77;;;4.73;;
8913;SDS011;4492;48.736;9.092;2023-08-01T07:44:17;7.57;;;4.43;;
8913;SDS011;4492;48.736;9.092;2023-08-01T07:46:43;6.07;;;4.27;;
8913;SDS011;4492;48.736;9.092;2023-08-01T07:49:08;6.80;;;4.57;;
8913;SDS011;4492;48.736;9.092;2023-08-01T07:51:34;7.33;;;4.77;;
8913;SDS011;4492;48.736;9.092;2023-08-01T07:54:00;8.27;;;4.40;;
8913;SDS011;4492;48.736;9.092;2023-08-01T07:56:25;6.13;;;3.67;;
8913;SDS011;4492;48.736;9.092;2023-08-01T07:58:51;5.00;;;3.57;;
8913;SDS011;4492;48.736;9.092;2023-08-01T08:01:16;4.93;;;3.30;;
8913;SDS011;4492;48.736;9.092;2023-08-01T08:03:42;5.23;;;3.80;;
8913;SDS011;4492;48.736;9.092;2023-08-01T08:06:07;3.53;;;3.10;;
8913;SDS011;4492;48.736;9.092;2023-08-01T08:08:33;6.27;;;3.33;;
8913;SDS011;4492;48.736;9.092;2023-08-01T08:10:59;6.70;;;3.30;;
8913;SDS011;4492;48.736;9.092;2023-08-01T08:13:24;3.23;;;2.60;;
8913;SDS011;4492;48.736;9.092;2023-08-01T08:15:50;4.07;;;2.87;;
8913;SDS011;4492;48.736;9.092;2023-08-01T08:18:16;4.13;;;3.10;;
8913;SDS011;4492;48.736;9.092;2023-08-01T08:20:43;2.80;;;2.60;;
8913;SDS011;4492;48.736;9.092;2023-08-01T08:23:10;4.50;;;2.63;;
8913;SDS011;4492;48.736;9.092;2023-08-01T08:25:38;4.93;;;3.07;;
8913;SDS011;4492;48.736;9.092;2023-08-01T08:28:03;2.97;;;2.60;;
8913;SDS011;4492;48.736;9.092;2023-08-01T08:30:29;3.50;;;3.00;;
8913;SDS011;4492;48.736;9.092;2023-08-01T08:32:54;2.83;;;2.50;;
8913;SDS011;4492;48.736;9.092;2023-08-01T08:35:22;3.50;;;2.67;;
8913;SDS011;4492;48.736;9.092;2023-08-01T08:37:47;2.90;;;2.70;;
8913;SDS011;4492;48.736;9.092;2023-08-01T08:40:13;3.03;;;2.73;;
8913;SDS011;4492;48.736;9.092;2023-08-01T08:42:39;3.77;;;2.67;;
8913;SDS011;4492;48.736;9.092;2023-08-01T08:45:05;3.87;;;2.70;;
8913;SDS011;4492;48.736;9.092;2023-08-01T08:47:31;4.50;;;3.10;;
8913;SDS011;4492;48.736;9.092;2023-08-01T08:50:00;3.60;;;2.67;;
8913;SDS011;4492;48.736;9.092;2023-08-01T08:52:26;2.80;;;2.60;;
8913;SDS011;4492;48.736;9.092;2023-08-01T08:54:52;3.20;;;2.90;;
8913;SDS011;4492;48.736;9.092;2023-08-01T08:57:18;3.07;;;2.33;;
8913;SDS011;4492;48.736;9.092;2023-08-01T08:59:45;3.70;;;3.00;;
8913;SDS011;4492;48.736;9.092;2023-08-01T09:02:12;3.17;;;2.30;;
8913;SDS011;4492;48.736;9.092;2023-08-01T09:04:39;3.20;;;2.53;;
8913;SDS011;4492;48.736;9.092;2023-08-01T09:07:07;4.10;;;2.63;;
8913;SDS011;4492;48.736;9.092;2023-08-01T09:09:34;3.90;;;2.57;;
8913;SDS011;4492;48.736;9.092;2023-08-01T09:12:00;2.60;;;2.40;;
8913;SDS011;4492;48.736;9.092;2023-08-01T09:14:25;3.07;;;2.67;;
8913;SDS011;4492;48.736;9.092;2023-08-01T09:16:51;2.50;;;2.10;;
8913;SDS011;4492;48.736;9.092;2023-08-01T09:19:20;3.17;;;2.40;;
8913;SDS011;4492;48.736;9.092;2023-08-01T09:21:49;2.60;;;2.00;;
8913;SDS011;4492;48.736;9.092;2023-08-01T09:24:16;3.17;;;2.00;;
8913;SDS011;4492;48.736;9.092;2023-08-01T09:26:43;3.77;;;1.97;;
8913;SDS011;4492;48.736;9.092;2023-08-01T09:29:09;5.30;;;1.90;;
8913;SDS011;4492;48.736;9.092;2023-08-01T09:31:35;3.17;;;2.00;;
8913;SDS011;4492;48.736;9.092;2023-08-01T09:34:03;3.73;;;1.60;;
8913;SDS011;4492;48.736;9.092;2023-08-01T09:36:34;1.50;;;1.40;;
8913;SDS011;4492;48.736;9.092;2023-08-01T09:39:01;2.37;;;1.70;;
8913;SDS011;4492;48.736;9.092;2023-08-01T09:41:28;2.33;;;1.70;;
8913;SDS011;4492;48.736;9.092;2023-08-01T09:43:55;1.90;;;1.70;;
8913;SDS011;4492;48.736;9.092;2023-08-01T09:46:21;2.17;;;1.80;;
8913;SDS011;4492;48.736;9.092;2023-08-01T09:48:46;2.03;;;1.30;;
8913;SDS011;4492;48.736;9.092;2023-08-01T09:51:13;1.23;;;1.07;;
8913;SDS011;4492;48.736;9.092;2023-08-01T09:56:18;1.17;;;1.03;;
8913;SDS011;4492;48.736;9.092;2023-08-01T09:58:49;0.63;;;0.63;;
8913;SDS011;4492;48.736;9.092;2023-08-01T10:01:18;1.90;;;0.50;;
8913;SDS011;4492;48.736;9.092;2023-08-01T10:03:46;0.40;;;0.40;;
8913;SDS011;4492;48.736;9.092;2023-08-01T10:08:54;0.60;;;0.60;;
8913;SDS011;4492;48.736;9.092;2023-08-01T10:11:20;1.23;;;0.60;;
8913;SDS011;4492;48.736;9.092;2023-08-01T10:13:46;0.50;;;0.50;;
8913;SDS011;4492;48.736;9.092;2023-08-01T10:16:13;0.40;;;0.40;;
8913;SDS011;4492;48.736;9.092;2023-08-01T10:18:40;1.90;;;0.50;;
8913;SDS011;4492;48.736;9.092;2023-08-01T10:21:06;0.80;;;0.57;;
8913;SDS011;4492;48.736;9.092;2023-08-01T10:23:33;0.73;;;0.53;;
8913;SDS011;4492;48.736;9.092;2023-08-01T10:25:59;0.60;;;0.60;;
8913;SDS011;4492;48.736;9.092;2023-08-01T10:28:32;0.80;;;0.50;;
8913;SDS011;4492;48.736;9.092;2023-08-01T10:31:12;0.30;;;0.30;;
8913;SDS011;4492;48.736;9.092;2023-08-01T10:33:40;0.93;;;0.50;;
8913;SDS011;4492;48.736;9.092;2023-08-01T10:36:17;0.50;;;0.50;;
8913;SDS011;4492;48.736;9.092;2023-08-01T10:38:54;0.63;;;0.50;;
8913;SDS011;4492;48.736;9.092;2023-08-01T10:41:31;0.43;;;0.43;;
8913;SDS011;4492;48.736;9.092;2023-08-01T10:44:31;0.70;;;0.50;;
8913;SDS011;4492;48.736;9.092;2023-08-01T10:49:32;0.70;;;0.43;;
8913;SDS011;4492;48.736;9.092;2023-08-01T10:52:00;0.50;;;0.50;;
8913;SDS011;4492;48.736;9.092;2023-08-01T10:54:27;0.47;;;0.40;;
8913;SDS011;4492;48.736;9.092;2023-08-01T10:56:53;0.97;;;0.50;;
8913;SDS011;4492;48.736;9.092;2023-08-01T10:59:23;0.70;;;0.70;;
8913;SDS011;4492;48.736;9.092;2023-08-01T11:01:50;0.70;;;0.70;;
8913;SDS011;4492;48.736;9.092;2023-08-01T11:04:23;0.80;;;0.80;;
8913;SDS011;4492;48.736;9.092;2023-08-01T11:06:50;0.73;;;0.73;;
8913;SDS011;4492;48.736;9.092;2023-08-01T11:11:48;0.90;;;0.60;;
8913;SDS011;4492;48.736;9.092;2023-08-01T11:14:16;0.97;;;0.80;;
8913;SDS011;4492;48.736;9.092;2023-08-01T11:16:43;0.90;;;0.70;;
8913;SDS011;4492;48.736;9.092;2023-08-01T11:19:19;0.80;;;0.80;;
8913;SDS011;4492;48.736;9.092;2023-08-01T11:21:52;1.80;;;1.60;;
8913;SDS011;4492;48.736;9.092;2023-08-01T11:24:20;2.10;;;1.60;;
8913;SDS011;4492;48.736;9.092;2023-08-01T11:26:48;2.73;;;1.47;;
8913;SDS011;4492;48.736;9.092;2023-08-01T11:29:15;2.00;;;0.70;;
8913;SDS011;4492;48.736;9.092;2023-08-01T11:31:51;2.43;;;1.10;;
8913;SDS011;4492;48.736;9.092;2023-08-01T11:34:21;1.03;;;0.87;;
8913;SDS011;4492;48.736;9.092;2023-08-01T11:36:46;1.83;;;1.10;;
8913;SDS011;4492;48.736;9.092;2023-08-01T11:39:12;0.67;;;0.67;;
8913;SDS011;4492;48.736;9.092;2023-08-01T11:41:40;0.90;;;0.90;;
8913;SDS011;4492;48.736;9.092;2023-08-01T11:44:06;2.20;;;1.00;;
8913;SDS011;4492;48.736;9.092;2023-08-01T11:46:33;1.17;;;0.87;;
8913;SDS011;4492;48.736;9.092;2023-08-01T11:49:00;1.03;;;0.93;;
8913;SDS011;4492;48.736;9.092;2023-08-01T11:51:27;1.20;;;1.20;;
8913;SDS011;4492;48.736;9.092;2023-08-01T11:54:03;0.83;;;0.83;;
8913;SDS011;4492;48.736;9.092;2023-08-01T11:56:29;1.67;;;0.90;;
8913;SDS011;4492;48.736;9.092;2023-08-01T11:58:55;1.07;;;0.97;;
8913;SDS011;4492;48.736;9.092;2023-08-01T12:01:22;3.33;;;1.00;;
8913;SDS011;4492;48.736;9.092;2023-08-01T12:03:48;1.20;;;1.10;;
8913;SDS011;4492;48.736;9.092;2023-08-01T12:06:19;0.70;;;0.70;;
8913;SDS011;4492;48.736;9.092;2023-08-01T12:08:47;1.90;;;1.20;;
8913;SDS011;4492;48.736;9.092;2023-08-01T12:11:24;0.97;;;0.93;;
8913;SDS011;4492;48.736;9.092;2023-08-01T12:14:02;1.60;;;0.90;;
8913;SDS011;4492;48.736;9.092;2023-08-01T12:16:29;1.07;;;0.87;;
8913;SDS011;4492;48.736;9.092;2023-08-01T12:18:55;1.30;;;1.00;;
8913;SDS011;4492;48.736;9.092;2023-08-01T12:21:21;1.23;;;1.00;;
8913;SDS011;4492;48.736;9.092;2023-08-01T12:23:47;1.13;;;1.00;;
8913;SDS011;4492;48.736;9.092;2023-08-01T12:26:12;1.30;;;1.20;;
8913;SDS011;4492;48.736;9.092;2023-08-01T12:28:38;2.20;;;1.10;;
8913;SDS011;4492;48.736;9.092;2023-08-01T12:31:03;1.63;;;1.00;;
8913;SDS011;4492;48.736;9.092;2023-08-01T12:33:29;1.30;;;1.10;;
8913;SDS011;4492;48.736;9.092;2023-08-01T12:35:55;1.30;;;1.20;;
8913;SDS011;4492;48.736;9.092;2023-08-01T12:38:21;2.33;;;0.80;;
8913;SDS011;4492;48.736;9.092;2023-08-01T12:40:47;6.53;;;1.10;;
8913;SDS011;4492;48.736;9.092;2023-08-01T12:43:13;1.67;;;1.47;;
8913;SDS011;4492;48.736;9.092;2023-08-01T12:45:39;1.00;;;1.00;;
8913;SDS011;4492;48.736;9.092;2023-08-01T12:48:05;1.17;;;1.07;;
8913;SDS011;4492;48.736;9.092;2023-08-01T12:50:30;1.83;;;1.20;;
8913;SDS011;4492;48.736;9.092;2023-08-01T12:52:56;1.00;;;0.90;;
8913;SDS011;4492;48.736;9.092;2023-08-01T12:55:21;1.57;;;1.07;;
8913;SDS011;4492;48.736;9.092;2023-08-01T12:57:47;1.03;;;1.03;;
8913;SDS011;4492;48.736;9.092;2023-08-01T13:00:12;1.57;;;1.47;;
8913;SDS011;4492;48.736;9.092;2023-08-01T13:02:38;1.20;;;1.00;;
8913;SDS011;4492;48.736;9.092;2023-08-01T13:05:04;1.00;;;1.00;;
8913;SDS011;4492;48.736;9.092;2023-08-01T13:07:30;1.10;;;1.03;;
8913;SDS011;4492;48.736;9.092;2023-08-01T13:09:59;4.70;;;1.27;;
8913;SDS011;4492;48.736;9.092;2023-08-01T13:12:25;0.93;;;0.93;;
8913;SDS011;4492;48.736;9.092;2023-08-01T13:14:51;1.97;;;1.10;;
8913;SDS011;4492;48.736;9.092;2023-08-01T13:17:16;1.53;;;1.27;;
8913;SDS011;4492;48.736;9.092;2023-08-01T13:19:42;1.50;;;1.40;;
8913;SDS011;4492;48.736;9.092;2023-08-01T13:22:07;2.33;;;1.10;;
8913;SDS011;4492;48.736;9.092;2023-08-01T13:24:33;1.83;;;1.30;;
8913;SDS011;4492;48.736;9.092;2023-08-01T13:26:58;2.07;;;1.10;;
8913;SDS011;4492;48.736;9.092;2023-08-01T13:29:24;2.90;;;1.20;;
8913;SDS011;4492;48.736;9.092;2023-08-01T13:31:49;1.00;;;1.00;;
8913;SDS011;4492;48.736;9.092;2023-08-01T13:34:15;1.37;;;1.07;;
8913;SDS011;4492;48.736;9.092;2023-08-01T13:36:42;1.20;;;1.10;;
8913;SDS011;4492;48.736;9.092;2023-08-01T13:39:08;1.30;;;1.20;;
8913;SDS011;4492;48.736;9.092;2023-08-01T13:41:33;1.67;;;1.00;;
8913;SDS011;4492;48.736;9.092;2023-08-01T13:43:59;2.20;;;1.30;;
8913;SDS011;4492;48.736;9.092;2023-08-01T13:46:24;1.07;;;1.03;;
8913;SDS011;4492;48.736;9.092;2023-08-01T13:48:50;1.10;;;1.00;;
8913;SDS011;4492;48.736;9.092;2023-08-01T13:51:15;2.50;;;1.40;;
8913;SDS011;4492;48.736;9.092;2023-08-01T13:53:42;1.33;;;1.13;;
8913;SDS011;4492;48.736;9.092;2023-08-01T13:56:08;2.13;;;1.47;;
8913;SDS011;4492;48.736;9.092;2023-08-01T13:58:35;1.50;;;1.40;;
8913;SDS011;4492;48.736;9.092;2023-08-01T14:01:03;2.43;;;1.47;;
8913;SDS011;4492;48.736;9.092;2023-08-01T14:03:32;1.00;;;1.00;;
8913;SDS011;4492;48.736;9.092;2023-08-01T14:06:11;1.60;;;1.07;;
8913;SDS011;4492;48.736;9.092;2023-08-01T14:08:37;1.77;;;1.30;;
8913;SDS011;4492;48.736;9.092;2023-08-01T14:11:05;2.27;;;1.30;;
8913;SDS011;4492;48.736;9.092;2023-08-01T14:13:32;1.30;;;1.20;;
8913;SDS011;4492;48.736;9.092;2023-08-01T14:15:58;3.70;;;1.33;;
8913;SDS011;4492;48.736;9.092;2023-08-01T14:18:24;2.23;;;1.23;;
8913;SDS011;4492;48.736;9.092;2023-08-01T14:20:50;1.83;;;1.27;;
8913;SDS011;4492;48.736;9.092;2023-08-01T14:23:15;1.20;;;1.10;;
8913;SDS011;4492;48.736;9.092;2023-08-01T14:25:41;2.60;;;1.20;;
8913;SDS011;4492;48.736;9.092;2023-08-01T14:28:07;1.77;;;1.13;;
8913;SDS011;4492;48.736;9.092;2023-08-01T14:30:32;1.40;;;1.10;;
8913;SDS011;4492;48.736;9.092;2023-08-01T14:33:01;1.77;;;1.33;;
8913;SDS011;4492;48.736;9.092;2023-08-01T14:35:28;0.70;;;0.70;;
8913;SDS011;4492;48.736;9.092;2023-08-01T14:37:53;2.73;;;1.50;;
8913;SDS011;4492;48.736;9.092;2023-08-01T14:40:20;1.10;;;1.00;;
8913;SDS011;4492;48.736;9.092;2023-08-01T14:42:46;2.47;;;1.40;;
8913;SDS011;4492;48.736;9.092;2023-08-01T14:45:12;1.07;;;1.00;;
8913;SDS011;4492;48.736;9.092;2023-08-01T14:47:39;1.43;;;1.33;;
8913;SDS011;4492;48.736;9.092;2023-08-01T14:50:09;1.10;;;1.00;;
8913;SDS011;4492;48.736;9.092;2023-08-01T14:52:35;2.10;;;1.23;;
8913;SDS011;4492;48.736;9.092;2023-08-01T14:55:00;1.57;;;1.30;;
8913;SDS011;4492;48.736;9.092;2023-08-01T14:57:26;1.43;;;1.10;;
8913;SDS011;4492;48.736;9.092;2023-08-01T14:59:52;2.60;;;1.00;;
8913;SDS011;4492;48.736;9.092;2023-08-01T15:02:17;1.40;;;1.30;;
8913;SDS011;4492;48.736;9.092;2023-08-01T15:04:43;1.30;;;1.10;;
8913;SDS011;4492;48.736;9.092;2023-08-01T15:07:09;1.30;;;1.10;;
8913;SDS011;4492;48.736;9.092;2023-08-01T15:09:34;1.20;;;1.00;;
8913;SDS011;4492;48.736;9.092;2023-08-01T15:12:00;1.40;;;1.10;;
8913;SDS011;4492;48.736;9.092;2023-08-01T15:14:25;1.67;;;1.10;;
8913;SDS011;4492;48.736;9.092;2023-08-01T15:16:51;1.37;;;1.27;;
8913;SDS011;4492;48.736;9.092;2023-08-01T15:19:17;1.30;;;1.20;;